sensor_id;sensor_type;location;lat;lon;timestamp;temperature;humidity
14682;DHT22;7429;52.498;13.480;2023-12-20T00:00:31;7.10;99.90
14682;DHT22;7429;52.498;13.480;2023-12-20T00:03:37;7.10;99.90
14682;DHT22;7429;52.498;13.480;2023-12-20T00:06:43;7.20;99.90
14682;DHT22;7429;52.498;13.480;2023-12-20T00:09:47;7.10;99.90
14682;DHT22;7429;52.498;13.480;2023-12-20T00:12:50;7.10;99.90
14682;DHT22;7429;52.498;13.480;2023-12-20T00:15:54;7.10;99.90
14682;DHT22;7429;52.498;13.480;2023-12-20T00:18:58;7.10;99.90
14682;DHT22;7429;52.498;13.480;2023-12-20T00:22:01;7.10;99.90
14682;DHT22;7429;52.498;13.480;2023-12-20T00:25:07;7.10;99.90
14682;DHT22;7429;52.498;13.480;2023-12-20T00:28:11;7.10;99.90
14682;DHT22;7429;52.498;13.480;2023-12-20T00:31:15;7.10;99.90
14682;DHT22;7429;52.498;13.480;2023-12-20T00:34:21;7.10;99.90
14682;DHT22;7429;52.498;13.480;2023-12-20T00:37:24;7.10;99.90
14682;DHT22;7429;52.498;13.480;2023-12-20T00:40:27;7.10;99.90
14682;DHT22;7429;52.498;13.480;2023-12-20T00:43:30;7.10;99.90
14682;DHT22;7429;52.498;13.480;2023-12-20T00:46:35;7.10;99.90
14682;DHT22;7429;52.498;13.480;2023-12-20T00:49:38;7.10;99.90
14682;DHT22;7429;52.498;13.480;2023-12-20T00:52:41;7.10;99.90
14682;DHT22;7429;52.498;13.480;2023-12-20T00:55:45;7.10;99.90
14682;DHT22;7429;52.498;13.480;2023-12-20T00:58:48;7.10;99.90
14682;DHT22;7429;52.498;13.480;2023-12-20T01:01:55;7.10;99.90
14682;DHT22;7429;52.498;13.480;2023-12-20T01:04:59;7.10;99.90
14682;DHT22;7429;52.498;13.480;2023-12-20T01:08:02;7.10;99.90
14682;DHT22;7429;52.498;13.480;2023-12-20T01:11:06;7.10;99.90
14682;DHT22;7429;52.498;13.480;2023-12-20T01:14:09;7.10;99.90
14682;DHT22;7429;52.498;13.480;2023-12-20T01:17:13;7.10;99.90
14682;DHT22;7429;52.498;13.480;2023-12-20T01:20:17;7.10;99.90
14682;DHT22;7429;52.498;13.480;2023-12-20T01:23:22;7.10;99.90
14682;DHT22;7429;52.498;13.480;2023-12-20T01:26:25;7.10;99.90
14682;DHT22;7429;52.498;13.480;2023-12-20T01:29:28;7.10;99.90
14682;DHT22;7429;52.498;13.480;2023-12-20T01:32:32;7.10;99.90
14682;DHT22;7429;52.498;13.480;2023-12-20T01:35:35;7.10;99.90
14682;DHT22;7429;52.498;13.480;2023-12-20T01:38:39;7.10;99.90
14682;DHT22;7429;52.498;13.480;2023-12-20T01:41:42;7.10;99.90
14682;DHT22;7429;52.498;13.480;2023-12-20T01:44:45;7.10;99.90
14682;DHT22;7429;52.498;13.480;2023-12-20T01:47:51;7.10;99.90
14682;DHT22;7429;52.498;13.480;2023-12-20T01:50:54;7.10;99.90
14682;DHT22;7429;52.498;13.480;2023-12-20T01:53:59;7.10;99.90
14682;DHT22;7429;52.498;13.480;2023-12-20T01:57:03;7.10;99.90
14682;DHT22;7429;52.498;13.480;2023-12-20T02:00:09;7.10;99.90
14682;DHT22;7429;52.498;13.480;2023-12-20T02:03:17;7.10;99.90
14682;DHT22;7429;52.498;13.480;2023-12-20T02:06:21;7.10;99.90
14682;DHT22;7429;52.498;13.480;2023-12-20T02:09:26;7.10;99.90
14682;DHT22;7429;52.498;13.480;2023-12-20T02:12:30;7.10;99.90
14682;DHT22;7429;52.498;13.480;2023-12-20T02:15:35;7.10;99.90
14682;DHT22;7429;52.498;13.480;2023-12-20T02:18:42;7.20;99.90
14682;DHT22;7429;52.498;13.480;2023-12-20T02:21:47;7.10;99.90
14682;DHT22;7429;52.498;13.480;2023-12-20T02:24:50;7.10;99.90
14682;DHT22;7429;52.498;13.480;2023-12-20T02:27:54;7.10;99.90
14682;DHT22;7429;52.498;13.480;2023-12-20T02:30:59;7.00;99.90
14682;DHT22;7429;52.498;13.480;2023-12-20T02:34:03;6.90;99.90
14682;DHT22;7429;52.498;13.480;2023-12-20T02:37:07;6.90;99.90
14682;DHT22;7429;52.498;13.480;2023-12-20T02:40:11;7.00;99.90
14682;DHT22;7429;52.498;13.480;2023-12-20T02:43:17;7.00;99.90
14682;DHT22;7429;52.498;13.480;2023-12-20T02:46:22;7.00;99.90
14682;DHT22;7429;52.498;13.480;2023-12-20T02:49:26;7.10;99.90
14682;DHT22;7429;52.498;13.480;2023-12-20T02:52:30;7.10;99.90
14682;DHT22;7429;52.498;13.480;2023-12-20T02:55:33;7.00;99.90
14682;DHT22;7429;52.498;13.480;2023-12-20T02:58:39;7.10;99.90
14682;DHT22;7429;52.498;13.480;2023-12-20T03:01:44;7.10;99.90
14682;DHT22;7429;52.498;13.480;2023-12-20T03:04:48;7.10;99.90
14682;DHT22;7429;52.498;13.480;2023-12-20T03:07:52;7.10;99.90
14682;DHT22;7429;52.498;13.480;2023-12-20T03:10:59;7.10;99.90
14682;DHT22;7429;52.498;13.480;2023-12-20T03:14:02;7.00;99.90
14682;DHT22;7429;52.498;13.480;2023-12-20T03:17:05;7.00;99.90
14682;DHT22;7429;52.498;13.480;2023-12-20T03:20:08;7.00;99.90
14682;DHT22;7429;52.498;13.480;2023-12-20T03:23:13;7.00;99.90
14682;DHT22;7429;52.498;13.480;2023-12-20T03:26:37;7.00;99.90
14682;DHT22;7429;52.498;13.480;2023-12-20T03:29:40;6.90;99.90
14682;DHT22;7429;52.498;13.480;2023-12-20T03:32:44;7.00;99.90
14682;DHT22;7429;52.498;13.480;2023-12-20T03:35:47;7.00;99.90
14682;DHT22;7429;52.498;13.480;2023-12-20T03:38:51;6.90;99.90
14682;DHT22;7429;52.498;13.480;2023-12-20T03:41:54;6.90;99.90
14682;DHT22;7429;52.498;13.480;2023-12-20T03:44:57;6.90;99.90
14682;DHT22;7429;52.498;13.480;2023-12-20T03:48:06;6.90;99.90
14682;DHT22;7429;52.498;13.480;2023-12-20T03:51:10;6.90;99.90
14682;DHT22;7429;52.498;13.480;2023-12-20T03:54:14;6.90;99.90
14682;DHT22;7429;52.498;13.480;2023-12-20T03:57:20;6.90;99.90
14682;DHT22;7429;52.498;13.480;2023-12-20T04:00:25;6.90;99.90
14682;DHT22;7429;52.498;13.480;2023-12-20T04:03:28;6.80;99.90
14682;DHT22;7429;52.498;13.480;2023-12-20T04:06:32;6.90;99.90
14682;DHT22;7429;52.498;13.480;2023-12-20T04:09:36;6.80;99.90
14682;DHT22;7429;52.498;13.480;2023-12-20T04:12:39;6.80;99.90
14682;DHT22;7429;52.498;13.480;2023-12-20T04:15:42;6.80;99.90
14682;DHT22;7429;52.498;13.480;2023-12-20T04:18:46;6.70;99.90
14682;DHT22;7429;52.498;13.480;2023-12-20T04:21:49;6.80;99.90
14682;DHT22;7429;52.498;13.480;2023-12-20T04:24:53;6.80;99.90
14682;DHT22;7429;52.498;13.480;2023-12-20T04:27:56;6.70;99.90
14682;DHT22;7429;52.498;13.480;2023-12-20T04:30:59;6.70;99.90
14682;DHT22;7429;52.498;13.480;2023-12-20T04:34:02;6.70;99.90
14682;DHT22;7429;52.498;13.480;2023-12-20T04:37:06;6.70;99.90
14682;DHT22;7429;52.498;13.480;2023-12-20T04:40:10;6.70;99.90
14682;DHT22;7429;52.498;13.480;2023-12-20T04:43:14;6.60;99.90
14682;DHT22;7429;52.498;13.480;2023-12-20T04:46:18;6.60;99.90
14682;DHT22;7429;52.498;13.480;2023-12-20T04:49:23;6.60;99.90
14682;DHT22;7429;52.498;13.480;2023-12-20T04:52:26;6.60;99.90
14682;DHT22;7429;52.498;13.480;2023-12-20T04:55:31;6.60;99.90
14682;DHT22;7429;52.498;13.480;2023-12-20T04:58:34;6.50;99.90
14682;DHT22;7429;52.498;13.480;2023-12-20T05:01:37;6.50;99.90
14682;DHT22;7429;52.498;13.480;2023-12-20T05:04:40;6.60;99.90
14682;DHT22;7429;52.498;13.480;2023-12-20T05:07:43;6.50;99.90
14682;DHT22;7429;52.498;13.480;2023-12-20T05:10:48;6.50;99.90
14682;DHT22;7429;52.498;13.480;2023-12-20T05:13:51;6.50;99.90
14682;DHT22;7429;52.498;13.480;2023-12-20T05:16:54;6.60;99.90
14682;DHT22;7429;52.498;13.480;2023-12-20T05:19:58;6.50;99.90
14682;DHT22;7429;52.498;13.480;2023-12-20T05:23:01;6.50;99.90
14682;DHT22;7429;52.498;13.480;2023-12-20T05:26:09;6.50;99.90
14682;DHT22;7429;52.498;13.480;2023-12-20T05:29:12;6.50;99.90
14682;DHT22;7429;52.498;13.480;2023-12-20T05:32:15;6.40;99.90
14682;DHT22;7429;52.498;13.480;2023-12-20T05:35:18;6.40;99.90
14682;DHT22;7429;52.498;13.480;2023-12-20T05:38:22;6.40;99.90
14682;DHT22;7429;52.498;13.480;2023-12-20T05:41:26;6.30;99.90
14682;DHT22;7429;52.498;13.480;2023-12-20T05:44:29;6.30;99.90
14682;DHT22;7429;52.498;13.480;2023-12-20T05:47:32;6.20;99.90
14682;DHT22;7429;52.498;13.480;2023-12-20T05:50:35;6.10;99.90
14682;DHT22;7429;52.498;13.480;2023-12-20T05:53:41;6.10;99.90
14682;DHT22;7429;52.498;13.480;2023-12-20T05:56:45;6.00;99.90
14682;DHT22;7429;52.498;13.480;2023-12-20T05:59:48;6.00;99.90
14682;DHT22;7429;52.498;13.480;2023-12-20T06:02:51;6.00;99.90
14682;DHT22;7429;52.498;13.480;2023-12-20T06:05:57;6.00;99.90
14682;DHT22;7429;52.498;13.480;2023-12-20T06:09:16;5.90;99.90
14682;DHT22;7429;52.498;13.480;2023-12-20T06:12:23;5.90;99.90
14682;DHT22;7429;52.498;13.480;2023-12-20T06:15:26;5.90;99.90
14682;DHT22;7429;52.498;13.480;2023-12-20T06:18:29;5.90;99.90
14682;DHT22;7429;52.498;13.480;2023-12-20T06:21:34;5.80;99.90
14682;DHT22;7429;52.498;13.480;2023-12-20T06:24:40;5.80;99.90
14682;DHT22;7429;52.498;13.480;2023-12-20T06:27:44;5.80;99.90
14682;DHT22;7429;52.498;13.480;2023-12-20T06:30:48;5.80;99.90
14682;DHT22;7429;52.498;13.480;2023-12-20T06:33:51;5.70;99.90
14682;DHT22;7429;52.498;13.480;2023-12-20T06:36:59;5.70;99.90
14682;DHT22;7429;52.498;13.480;2023-12-20T06:40:03;5.70;99.90
14682;DHT22;7429;52.498;13.480;2023-12-20T06:43:08;5.70;99.90
14682;DHT22;7429;52.498;13.480;2023-12-20T06:46:27;5.80;99.90
14682;DHT22;7429;52.498;13.480;2023-12-20T06:49:30;5.70;99.90
14682;DHT22;7429;52.498;13.480;2023-12-20T06:52:33;5.70;99.90
14682;DHT22;7429;52.498;13.480;2023-12-20T06:55:36;5.70;99.90
14682;DHT22;7429;52.498;13.480;2023-12-20T06:58:41;5.70;99.90
14682;DHT22;7429;52.498;13.480;2023-12-20T07:01:47;5.70;99.90
14682;DHT22;7429;52.498;13.480;2023-12-20T07:04:51;5.70;99.90
14682;DHT22;7429;52.498;13.480;2023-12-20T07:07:54;5.80;99.90
14682;DHT22;7429;52.498;13.480;2023-12-20T07:10:58;5.70;99.90
14682;DHT22;7429;52.498;13.480;2023-12-20T07:14:04;5.70;99.90
14682;DHT22;7429;52.498;13.480;2023-12-20T07:17:10;5.70;99.90
14682;DHT22;7429;52.498;13.480;2023-12-20T07:20:15;5.70;99.90
14682;DHT22;7429;52.498;13.480;2023-12-20T07:23:21;5.70;99.90
14682;DHT22;7429;52.498;13.480;2023-12-20T07:26:24;5.70;99.90
14682;DHT22;7429;52.498;13.480;2023-12-20T07:29:28;5.70;99.90
14682;DHT22;7429;52.498;13.480;2023-12-20T07:32:34;5.70;99.90
14682;DHT22;7429;52.498;13.480;2023-12-20T07:35:37;5.80;99.90
14682;DHT22;7429;52.498;13.480;2023-12-20T07:38:40;5.80;99.90
14682;DHT22;7429;52.498;13.480;2023-12-20T07:41:45;5.80;99.90
14682;DHT22;7429;52.498;13.480;2023-12-20T07:44:50;5.80;99.90
14682;DHT22;7429;52.498;13.480;2023-12-20T07:47:53;5.80;99.90
14682;DHT22;7429;52.498;13.480;2023-12-20T07:50:56;5.80;99.90
14682;DHT22;7429;52.498;13.480;2023-12-20T07:53:59;5.90;99.90
14682;DHT22;7429;52.498;13.480;2023-12-20T07:57:03;5.80;99.90
14682;DHT22;7429;52.498;13.480;2023-12-20T08:00:08;5.90;99.90
14682;DHT22;7429;52.498;13.480;2023-12-20T08:03:12;5.90;99.90
14682;DHT22;7429;52.498;13.480;2023-12-20T08:06:16;5.90;99.90
14682;DHT22;7429;52.498;13.480;2023-12-20T08:09:22;5.80;99.90
14682;DHT22;7429;52.498;13.480;2023-12-20T08:12:25;5.90;99.90
14682;DHT22;7429;52.498;13.480;2023-12-20T08:15:31;5.90;99.90
14682;DHT22;7429;52.498;13.480;2023-12-20T08:18:34;5.90;99.90
14682;DHT22;7429;52.498;13.480;2023-12-20T08:21:37;5.90;99.90
14682;DHT22;7429;52.498;13.480;2023-12-20T08:24:40;5.90;99.90
14682;DHT22;7429;52.498;13.480;2023-12-20T08:27:43;6.00;99.90
14682;DHT22;7429;52.498;13.480;2023-12-20T08:30:48;6.00;99.90
14682;DHT22;7429;52.498;13.480;2023-12-20T08:33:56;6.00;99.90
14682;DHT22;7429;52.498;13.480;2023-12-20T08:36:59;6.00;99.90
14682;DHT22;7429;52.498;13.480;2023-12-20T08:40:03;6.00;99.90
14682;DHT22;7429;52.498;13.480;2023-12-20T08:43:07;5.90;99.90
14682;DHT22;7429;52.498;13.480;2023-12-20T08:46:13;6.00;99.90
14682;DHT22;7429;52.498;13.480;2023-12-20T08:49:22;6.00;99.90
14682;DHT22;7429;52.498;13.480;2023-12-20T08:52:28;5.90;99.90
14682;DHT22;7429;52.498;13.480;2023-12-20T08:55:32;6.00;99.90
14682;DHT22;7429;52.498;13.480;2023-12-20T08:58:35;6.10;99.90
14682;DHT22;7429;52.498;13.480;2023-12-20T09:01:40;6.10;99.90
14682;DHT22;7429;52.498;13.480;2023-12-20T09:04:43;6.20;99.90
14682;DHT22;7429;52.498;13.480;2023-12-20T09:07:46;6.20;99.90
14682;DHT22;7429;52.498;13.480;2023-12-20T09:10:52;6.20;99.90
14682;DHT22;7429;52.498;13.480;2023-12-20T09:13:56;6.10;99.90
14682;DHT22;7429;52.498;13.480;2023-12-20T09:17:00;6.20;99.90
14682;DHT22;7429;52.498;13.480;2023-12-20T09:20:06;6.30;99.90
14682;DHT22;7429;52.498;13.480;2023-12-20T09:23:10;6.30;99.90
14682;DHT22;7429;52.498;13.480;2023-12-20T09:26:13;6.30;99.90
14682;DHT22;7429;52.498;13.480;2023-12-20T09:29:16;6.40;99.90
14682;DHT22;7429;52.498;13.480;2023-12-20T09:32:22;6.40;99.90
14682;DHT22;7429;52.498;13.480;2023-12-20T09:35:30;6.40;99.90
14682;DHT22;7429;52.498;13.480;2023-12-20T09:38:33;6.40;99.90
14682;DHT22;7429;52.498;13.480;2023-12-20T09:41:44;6.40;99.90
14682;DHT22;7429;52.498;13.480;2023-12-20T09:44:51;6.40;99.90
14682;DHT22;7429;52.498;13.480;2023-12-20T09:47:57;6.40;99.90
14682;DHT22;7429;52.498;13.480;2023-12-20T09:51:04;6.40;99.90
14682;DHT22;7429;52.498;13.480;2023-12-20T09:54:07;6.40;99.90
14682;DHT22;7429;52.498;13.480;2023-12-20T09:57:10;6.40;99.90
14682;DHT22;7429;52.498;13.480;2023-12-20T10:00:14;6.50;99.90
14682;DHT22;7429;52.498;13.480;2023-12-20T10:03:26;6.50;99.90
14682;DHT22;7429;52.498;13.480;2023-12-20T10:06:29;6.50;99.90
14682;DHT22;7429;52.498;13.480;2023-12-20T10:09:32;6.50;99.90
14682;DHT22;7429;52.498;13.480;2023-12-20T10:12:36;6.40;99.90
14682;DHT22;7429;52.498;13.480;2023-12-20T10:15:40;6.50;99.90
14682;DHT22;7429;52.498;13.480;2023-12-20T10:18:46;6.50;99.90
14682;DHT22;7429;52.498;13.480;2023-12-20T10:21:49;6.60;99.90
14682;DHT22;7429;52.498;13.480;2023-12-20T10:24:56;6.50;99.90
14682;DHT22;7429;52.498;13.480;2023-12-20T10:28:10;6.60;99.90
14682;DHT22;7429;52.498;13.480;2023-12-20T10:31:27;6.60;99.90
14682;DHT22;7429;52.498;13.480;2023-12-20T10:34:34;6.60;99.90
14682;DHT22;7429;52.498;13.480;2023-12-20T10:37:38;6.60;99.90
14682;DHT22;7429;52.498;13.480;2023-12-20T10:40:41;6.60;99.90
14682;DHT22;7429;52.498;13.480;2023-12-20T10:43:47;6.70;99.90
14682;DHT22;7429;52.498;13.480;2023-12-20T10:46:51;6.70;99.90
14682;DHT22;7429;52.498;13.480;2023-12-20T10:50:03;6.70;99.90
14682;DHT22;7429;52.498;13.480;2023-12-20T10:53:09;6.70;99.90
14682;DHT22;7429;52.498;13.480;2023-12-20T10:56:16;6.80;99.90
14682;DHT22;7429;52.498;13.480;2023-12-20T10:59:26;6.80;99.90
14682;DHT22;7429;52.498;13.480;2023-12-20T11:02:33;6.90;99.90
14682;DHT22;7429;52.498;13.480;2023-12-20T11:05:46;6.90;99.90
14682;DHT22;7429;52.498;13.480;2023-12-20T11:08:59;6.90;99.90
14682;DHT22;7429;52.498;13.480;2023-12-20T11:12:22;6.90;99.90
14682;DHT22;7429;52.498;13.480;2023-12-20T11:15:30;6.90;99.90
14682;DHT22;7429;52.498;13.480;2023-12-20T11:18:33;6.90;99.90
14682;DHT22;7429;52.498;13.480;2023-12-20T11:21:38;6.90;99.90
14682;DHT22;7429;52.498;13.480;2023-12-20T11:24:44;6.90;99.90
14682;DHT22;7429;52.498;13.480;2023-12-20T11:28:07;6.80;99.90
14682;DHT22;7429;52.498;13.480;2023-12-20T11:31:14;6.80;99.90
14682;DHT22;7429;52.498;13.480;2023-12-20T11:34:21;6.80;99.90
14682;DHT22;7429;52.498;13.480;2023-12-20T11:37:35;6.80;99.90
14682;DHT22;7429;52.498;13.480;2023-12-20T11:40:41;6.70;99.90
14682;DHT22;7429;52.498;13.480;2023-12-20T11:43:46;6.70;99.90
14682;DHT22;7429;52.498;13.480;2023-12-20T11:46:49;6.70;99.90
14682;DHT22;7429;52.498;13.480;2023-12-20T11:49:52;6.70;99.90
14682;DHT22;7429;52.498;13.480;2023-12-20T11:52:59;6.70;99.90
14682;DHT22;7429;52.498;13.480;2023-12-20T11:56:03;6.70;99.90
14682;DHT22;7429;52.498;13.480;2023-12-20T11:59:08;6.70;99.90
14682;DHT22;7429;52.498;13.480;2023-12-20T12:02:24;6.70;99.90
14682;DHT22;7429;52.498;13.480;2023-12-20T12:05:27;6.70;99.90
14682;DHT22;7429;52.498;13.480;2023-12-20T12:08:33;6.70;99.90
14682;DHT22;7429;52.498;13.480;2023-12-20T12:11:44;6.70;99.90
14682;DHT22;7429;52.498;13.480;2023-12-20T12:14:50;6.70;99.90
14682;DHT22;7429;52.498;13.480;2023-12-20T12:17:53;6.80;99.90
14682;DHT22;7429;52.498;13.480;2023-12-20T12:21:00;6.80;99.90
14682;DHT22;7429;52.498;13.480;2023-12-20T12:24:14;6.80;99.90
14682;DHT22;7429;52.498;13.480;2023-12-20T12:27:17;6.80;99.90
14682;DHT22;7429;52.498;13.480;2023-12-20T12:30:23;6.80;99.90
14682;DHT22;7429;52.498;13.480;2023-12-20T12:33:31;6.90;99.90
14682;DHT22;7429;52.498;13.480;2023-12-20T12:36:34;6.80;99.90
14682;DHT22;7429;52.498;13.480;2023-12-20T12:39:40;6.80;99.90
14682;DHT22;7429;52.498;13.480;2023-12-20T12:42:47;6.80;99.90
14682;DHT22;7429;52.498;13.480;2023-12-20T12:45:56;6.70;99.90
14682;DHT22;7429;52.498;13.480;2023-12-20T12:49:00;6.60;99.90
14682;DHT22;7429;52.498;13.480;2023-12-20T12:52:03;6.70;99.90
14682;DHT22;7429;52.498;13.480;2023-12-20T12:55:09;6.50;99.90
14682;DHT22;7429;52.498;13.480;2023-12-20T12:58:12;6.50;99.90
14682;DHT22;7429;52.498;13.480;2023-12-20T13:01:15;6.50;99.90
14682;DHT22;7429;52.498;13.480;2023-12-20T13:04:18;6.40;99.90
14682;DHT22;7429;52.498;13.480;2023-12-20T13:07:24;6.40;99.90
14682;DHT22;7429;52.498;13.480;2023-12-20T13:10:28;6.40;99.90
14682;DHT22;7429;52.498;13.480;2023-12-20T13:13:31;6.40;99.90
14682;DHT22;7429;52.498;13.480;2023-12-20T13:16:34;6.40;99.90
14682;DHT22;7429;52.498;13.480;2023-12-20T13:19:40;6.40;99.90
14682;DHT22;7429;52.498;13.480;2023-12-20T13:22:45;6.40;99.90
14682;DHT22;7429;52.498;13.480;2023-12-20T13:25:49;6.40;99.90
14682;DHT22;7429;52.498;13.480;2023-12-20T13:28:53;6.40;99.90
14682;DHT22;7429;52.498;13.480;2023-12-20T13:31:57;6.30;99.90
14682;DHT22;7429;52.498;13.480;2023-12-20T13:35:00;6.10;99.90
14682;DHT22;7429;52.498;13.480;2023-12-20T13:38:08;5.80;99.90
14682;DHT22;7429;52.498;13.480;2023-12-20T13:41:13;5.80;99.90
14682;DHT22;7429;52.498;13.480;2023-12-20T13:44:16;5.80;99.90
14682;DHT22;7429;52.498;13.480;2023-12-20T13:47:19;5.80;99.90
14682;DHT22;7429;52.498;13.480;2023-12-20T13:50:26;5.80;99.90
14682;DHT22;7429;52.498;13.480;2023-12-20T13:53:29;5.80;99.90
14682;DHT22;7429;52.498;13.480;2023-12-20T13:56:35;5.80;99.90
14682;DHT22;7429;52.498;13.480;2023-12-20T13:59:53;5.80;99.90
14682;DHT22;7429;52.498;13.480;2023-12-20T14:02:58;5.70;99.90
14682;DHT22;7429;52.498;13.480;2023-12-20T14:06:02;5.70;99.90
14682;DHT22;7429;52.498;13.480;2023-12-20T14:09:05;5.70;99.90
14682;DHT22;7429;52.498;13.480;2023-12-20T14:12:11;5.70;99.90
14682;DHT22;7429;52.498;13.480;2023-12-20T14:15:14;5.70;99.90
14682;DHT22;7429;52.498;13.480;2023-12-20T14:18:19;5.70;99.90
14682;DHT22;7429;52.498;13.480;2023-12-20T14:21:22;5.70;99.90
14682;DHT22;7429;52.498;13.480;2023-12-20T14:24:25;5.70;99.90
14682;DHT22;7429;52.498;13.480;2023-12-20T14:27:30;5.70;99.90
14682;DHT22;7429;52.498;13.480;2023-12-20T14:30:35;5.70;99.90
14682;DHT22;7429;52.498;13.480;2023-12-20T14:33:40;5.70;99.90
14682;DHT22;7429;52.498;13.480;2023-12-20T14:36:44;5.70;99.90
14682;DHT22;7429;52.498;13.480;2023-12-20T14:39:47;5.60;99.90
14682;DHT22;7429;52.498;13.480;2023-12-20T14:42:56;5.70;99.90
14682;DHT22;7429;52.498;13.480;2023-12-20T14:46:00;5.60;99.90
14682;DHT22;7429;52.498;13.480;2023-12-20T14:49:03;5.60;99.90
14682;DHT22;7429;52.498;13.480;2023-12-20T14:52:07;5.60;99.90
14682;DHT22;7429;52.498;13.480;2023-12-20T14:55:13;5.60;99.90
14682;DHT22;7429;52.498;13.480;2023-12-20T14:58:19;5.70;99.90
14682;DHT22;7429;52.498;13.480;2023-12-20T15:01:27;5.70;99.90
14682;DHT22;7429;52.498;13.480;2023-12-20T15:04:36;5.70;99.90
14682;DHT22;7429;52.498;13.480;2023-12-20T15:07:44;5.70;99.90
14682;DHT22;7429;52.498;13.480;2023-12-20T15:11:16;5.70;99.90
14682;DHT22;7429;52.498;13.480;2023-12-20T15:14:21;5.80;99.90
14682;DHT22;7429;52.498;13.480;2023-12-20T15:17:27;5.70;99.90
14682;DHT22;7429;52.498;13.480;2023-12-20T15:20:30;5.60;99.90
14682;DHT22;7429;52.498;13.480;2023-12-20T15:23:35;5.70;99.90
14682;DHT22;7429;52.498;13.480;2023-12-20T15:26:38;5.70;99.90
14682;DHT22;7429;52.498;13.480;2023-12-20T15:29:43;5.70;99.90
14682;DHT22;7429;52.498;13.480;2023-12-20T15:32:46;5.70;99.90
14682;DHT22;7429;52.498;13.480;2023-12-20T15:35:50;5.70;99.90
14682;DHT22;7429;52.498;13.480;2023-12-20T15:38:55;5.70;99.90
14682;DHT22;7429;52.498;13.480;2023-12-20T15:41:58;5.70;99.90
14682;DHT22;7429;52.498;13.480;2023-12-20T15:45:03;5.60;99.90
14682;DHT22;7429;52.498;13.480;2023-12-20T15:48:07;5.60;99.90
14682;DHT22;7429;52.498;13.480;2023-12-20T15:51:14;5.60;99.90
14682;DHT22;7429;52.498;13.480;2023-12-20T15:54:17;5.60;99.90
14682;DHT22;7429;52.498;13.480;2023-12-20T15:57:20;5.50;99.90
14682;DHT22;7429;52.498;13.480;2023-12-20T16:00:27;5.40;99.90
14682;DHT22;7429;52.498;13.480;2023-12-20T16:03:31;5.50;99.90
14682;DHT22;7429;52.498;13.480;2023-12-20T16:06:41;5.40;99.90
14682;DHT22;7429;52.498;13.480;2023-12-20T16:09:45;5.40;99.90
14682;DHT22;7429;52.498;13.480;2023-12-20T16:12:48;5.40;99.90
14682;DHT22;7429;52.498;13.480;2023-12-20T16:15:54;5.40;99.90
14682;DHT22;7429;52.498;13.480;2023-12-20T16:18:58;5.40;99.90
14682;DHT22;7429;52.498;13.480;2023-12-20T16:22:01;5.30;99.90
14682;DHT22;7429;52.498;13.480;2023-12-20T16:25:07;5.30;99.90
14682;DHT22;7429;52.498;13.480;2023-12-20T16:28:12;5.30;99.90
14682;DHT22;7429;52.498;13.480;2023-12-20T16:31:17;5.30;99.90
14682;DHT22;7429;52.498;13.480;2023-12-20T16:34:20;5.30;99.90
14682;DHT22;7429;52.498;13.480;2023-12-20T16:37:23;5.20;99.90
14682;DHT22;7429;52.498;13.480;2023-12-20T16:40:28;5.20;99.90
14682;DHT22;7429;52.498;13.480;2023-12-20T16:43:32;5.20;99.90
14682;DHT22;7429;52.498;13.480;2023-12-20T16:46:36;5.20;99.90
14682;DHT22;7429;52.498;13.480;2023-12-20T16:49:40;5.20;99.90
14682;DHT22;7429;52.498;13.480;2023-12-20T16:52:43;5.20;99.90
14682;DHT22;7429;52.498;13.480;2023-12-20T16:55:49;5.30;99.90
14682;DHT22;7429;52.498;13.480;2023-12-20T16:58:52;5.20;99.90
14682;DHT22;7429;52.498;13.480;2023-12-20T17:01:57;5.20;99.90
14682;DHT22;7429;52.498;13.480;2023-12-20T17:05:04;5.10;99.90
14682;DHT22;7429;52.498;13.480;2023-12-20T17:08:07;5.20;99.90
14682;DHT22;7429;52.498;13.480;2023-12-20T17:11:10;5.20;99.90
14682;DHT22;7429;52.498;13.480;2023-12-20T17:14:13;5.20;99.90
14682;DHT22;7429;52.498;13.480;2023-12-20T17:17:18;5.10;99.90
14682;DHT22;7429;52.498;13.480;2023-12-20T17:20:21;5.20;99.90
14682;DHT22;7429;52.498;13.480;2023-12-20T17:23:27;5.20;99.90
14682;DHT22;7429;52.498;13.480;2023-12-20T17:26:30;5.20;99.90
14682;DHT22;7429;52.498;13.480;2023-12-20T17:29:36;5.20;99.90
14682;DHT22;7429;52.498;13.480;2023-12-20T17:32:40;5.20;99.90
14682;DHT22;7429;52.498;13.480;2023-12-20T17:35:50;5.20;99.90
14682;DHT22;7429;52.498;13.480;2023-12-20T17:38:58;5.20;99.90
14682;DHT22;7429;52.498;13.480;2023-12-20T17:42:05;5.30;99.90
14682;DHT22;7429;52.498;13.480;2023-12-20T17:45:11;5.30;99.90
14682;DHT22;7429;52.498;13.480;2023-12-20T17:48:16;5.30;99.90
14682;DHT22;7429;52.498;13.480;2023-12-20T17:51:19;5.30;99.90
14682;DHT22;7429;52.498;13.480;2023-12-20T17:54:26;5.40;99.90
14682;DHT22;7429;52.498;13.480;2023-12-20T17:57:31;5.40;99.90
14682;DHT22;7429;52.498;13.480;2023-12-20T18:00:39;5.40;99.90
14682;DHT22;7429;52.498;13.480;2023-12-20T18:03:51;5.50;99.90
14682;DHT22;7429;52.498;13.480;2023-12-20T18:06:55;5.40;99.90
14682;DHT22;7429;52.498;13.480;2023-12-20T18:09:58;5.40;99.90
14682;DHT22;7429;52.498;13.480;2023-12-20T18:13:04;5.40;99.90
14682;DHT22;7429;52.498;13.480;2023-12-20T18:16:11;5.50;99.90
14682;DHT22;7429;52.498;13.480;2023-12-20T18:19:15;5.50;99.90
14682;DHT22;7429;52.498;13.480;2023-12-20T18:22:20;5.50;99.90
14682;DHT22;7429;52.498;13.480;2023-12-20T18:25:23;5.50;99.90
14682;DHT22;7429;52.498;13.480;2023-12-20T18:28:31;5.50;99.90
14682;DHT22;7429;52.498;13.480;2023-12-20T18:31:39;5.60;99.90
14682;DHT22;7429;52.498;13.480;2023-12-20T18:34:46;5.50;99.90
14682;DHT22;7429;52.498;13.480;2023-12-20T18:37:49;5.60;99.90
14682;DHT22;7429;52.498;13.480;2023-12-20T18:40:52;5.60;99.90
14682;DHT22;7429;52.498;13.480;2023-12-20T18:43:55;5.60;99.90
14682;DHT22;7429;52.498;13.480;2023-12-20T18:46:58;5.60;99.90
14682;DHT22;7429;52.498;13.480;2023-12-20T18:50:03;5.60;99.90
14682;DHT22;7429;52.498;13.480;2023-12-20T18:53:10;5.60;99.90
14682;DHT22;7429;52.498;13.480;2023-12-20T18:56:14;5.70;99.90
14682;DHT22;7429;52.498;13.480;2023-12-20T18:59:17;5.60;99.90
14682;DHT22;7429;52.498;13.480;2023-12-20T19:02:21;5.70;99.90
14682;DHT22;7429;52.498;13.480;2023-12-20T19:05:29;5.60;99.90
14682;DHT22;7429;52.498;13.480;2023-12-20T19:08:32;5.70;99.90
14682;DHT22;7429;52.498;13.480;2023-12-20T19:11:35;5.70;99.90
14682;DHT22;7429;52.498;13.480;2023-12-20T19:14:43;5.70;99.90
14682;DHT22;7429;52.498;13.480;2023-12-20T19:17:46;5.70;99.90
14682;DHT22;7429;52.498;13.480;2023-12-20T19:20:52;5.70;99.90
14682;DHT22;7429;52.498;13.480;2023-12-20T19:23:58;5.70;99.90
14682;DHT22;7429;52.498;13.480;2023-12-20T19:27:01;5.70;99.90
14682;DHT22;7429;52.498;13.480;2023-12-20T19:30:06;5.70;99.90
14682;DHT22;7429;52.498;13.480;2023-12-20T19:33:10;5.70;99.90
14682;DHT22;7429;52.498;13.480;2023-12-20T19:36:15;5.60;99.90
14682;DHT22;7429;52.498;13.480;2023-12-20T19:39:20;5.60;99.90
14682;DHT22;7429;52.498;13.480;2023-12-20T19:42:28;5.60;99.90
14682;DHT22;7429;52.498;13.480;2023-12-20T19:45:32;5.60;99.90